sensor_id;sensor_type;location;lat;lon;timestamp;temperature;humidity
66740;DHT22;53653;52.188;8.602;2022-09-25T00:01:30;12.34;89.53
66740;DHT22;53653;52.188;8.602;2022-09-25T00:03:56;12.35;89.44
66740;DHT22;53653;52.188;8.602;2022-09-25T00:06:24;12.35;89.28
66740;DHT22;53653;52.188;8.602;2022-09-25T00:08:50;12.31;89.43
66740;DHT22;53653;52.188;8.602;2022-09-25T00:11:28;12.28;89.57
66740;DHT22;53653;52.188;8.602;2022-09-25T00:13:54;12.27;89.42
66740;DHT22;53653;52.188;8.602;2022-09-25T00:16:22;12.21;89.81
66740;DHT22;53653;52.188;8.602;2022-09-25T00:18:48;12.23;89.74
66740;DHT22;53653;52.188;8.602;2022-09-25T00:21:33;12.18;89.82
66740;DHT22;53653;52.188;8.602;2022-09-25T00:24:01;12.14;89.96
66740;DHT22;53653;52.188;8.602;2022-09-25T00:26:29;12.13;90.09
66740;DHT22;53653;52.188;8.602;2022-09-25T00:28:55;12.14;90.22
66740;DHT22;53653;52.188;8.602;2022-09-25T00:31:22;12.08;90.36
66740;DHT22;53653;52.188;8.602;2022-09-25T00:33:52;12.10;90.33
66740;DHT22;53653;52.188;8.602;2022-09-25T00:36:18;12.08;90.35
66740;DHT22;53653;52.188;8.602;2022-09-25T00:38:44;12.07;90.41
66740;DHT22;53653;52.188;8.602;2022-09-25T00:41:14;12.04;90.48
66740;DHT22;53653;52.188;8.602;2022-09-25T00:43:50;12.04;90.64
66740;DHT22;53653;52.188;8.602;2022-09-25T00:46:20;12.03;90.67
66740;DHT22;53653;52.188;8.602;2022-09-25T00:49:16;11.97;90.92
66740;DHT22;53653;52.188;8.602;2022-09-25T00:51:49;11.98;90.88
66740;DHT22;53653;52.188;8.602;2022-09-25T00:54:19;12.00;90.94
66740;DHT22;53653;52.188;8.602;2022-09-25T00:56:48;12.05;90.83
66740;DHT22;53653;52.188;8.602;2022-09-25T00:59:18;12.04;90.82
66740;DHT22;53653;52.188;8.602;2022-09-25T01:01:45;12.05;90.66
66740;DHT22;53653;52.188;8.602;2022-09-25T01:04:11;12.05;90.61
66740;DHT22;53653;52.188;8.602;2022-09-25T01:06:37;12.03;90.60
66740;DHT22;53653;52.188;8.602;2022-09-25T01:09:04;12.01;90.55
66740;DHT22;53653;52.188;8.602;2022-09-25T01:11:29;11.98;90.56
66740;DHT22;53653;52.188;8.602;2022-09-25T01:13:56;11.95;90.58
66740;DHT22;53653;52.188;8.602;2022-09-25T01:16:33;11.93;90.70
66740;DHT22;53653;52.188;8.602;2022-09-25T01:25:28;11.93;90.75
66740;DHT22;53653;52.188;8.602;2022-09-25T01:27:36;11.89;90.90
66740;DHT22;53653;52.188;8.602;2022-09-25T01:30:13;11.87;91.07
66740;DHT22;53653;52.188;8.602;2022-09-25T01:32:58;11.83;91.14
66740;DHT22;53653;52.188;8.602;2022-09-25T01:35:51;11.87;90.99
66740;DHT22;53653;52.188;8.602;2022-09-25T01:38:41;11.83;91.10
66740;DHT22;53653;52.188;8.602;2022-09-25T01:41:32;11.86;91.20
66740;DHT22;53653;52.188;8.602;2022-09-25T01:44:11;11.87;91.18
66740;DHT22;53653;52.188;8.602;2022-09-25T01:46:46;11.87;91.13
66740;DHT22;53653;52.188;8.602;2022-09-25T01:49:18;11.84;91.13
66740;DHT22;53653;52.188;8.602;2022-09-25T01:51:51;11.83;91.29
66740;DHT22;53653;52.188;8.602;2022-09-25T01:54:29;11.83;91.33
66740;DHT22;53653;52.188;8.602;2022-09-25T01:57:02;11.84;91.51
66740;DHT22;53653;52.188;8.602;2022-09-25T01:59:32;11.84;91.53
66740;DHT22;53653;52.188;8.602;2022-09-25T02:02:02;11.83;91.59
66740;DHT22;53653;52.188;8.602;2022-09-25T02:04:34;11.83;91.66
66740;DHT22;53653;52.188;8.602;2022-09-25T02:07:03;11.87;91.53
66740;DHT22;53653;52.188;8.602;2022-09-25T02:09:46;11.87;91.55
66740;DHT22;53653;52.188;8.602;2022-09-25T02:12:24;11.90;91.54
66740;DHT22;53653;52.188;8.602;2022-09-25T02:14:57;11.93;91.55
66740;DHT22;53653;52.188;8.602;2022-09-25T02:17:38;11.93;91.63
66740;DHT22;53653;52.188;8.602;2022-09-25T02:20:29;11.93;91.53
66740;DHT22;53653;52.188;8.602;2022-09-25T02:23:20;11.87;91.71
66740;DHT22;53653;52.188;8.602;2022-09-25T02:26:08;11.87;91.73
66740;DHT22;53653;52.188;8.602;2022-09-25T02:28:39;11.89;91.67
66740;DHT22;53653;52.188;8.602;2022-09-25T02:31:07;11.87;91.73
66740;DHT22;53653;52.188;8.602;2022-09-25T02:33:34;11.83;91.85
66740;DHT22;53653;52.188;8.602;2022-09-25T02:36:02;11.82;91.86
66740;DHT22;53653;52.188;8.602;2022-09-25T02:38:28;11.77;91.92
66740;DHT22;53653;52.188;8.602;2022-09-25T02:44:11;11.75;92.02
66740;DHT22;53653;52.188;8.602;2022-09-25T02:49:42;11.75;92.04
66740;DHT22;53653;52.188;8.602;2022-09-25T02:52:18;11.73;92.04
66740;DHT22;53653;52.188;8.602;2022-09-25T02:54:55;11.73;92.06
66740;DHT22;53653;52.188;8.602;2022-09-25T03:00:11;11.66;92.15
66740;DHT22;53653;52.188;8.602;2022-09-25T03:02:38;11.66;92.15
66740;DHT22;53653;52.188;8.602;2022-09-25T03:05:05;11.65;92.17
66740;DHT22;53653;52.188;8.602;2022-09-25T03:07:31;11.65;92.28
66740;DHT22;53653;52.188;8.602;2022-09-25T03:10:17;11.62;92.34
66740;DHT22;53653;52.188;8.602;2022-09-25T03:12:43;11.61;92.41
66740;DHT22;53653;52.188;8.602;2022-09-25T03:15:10;11.59;92.47
66740;DHT22;53653;52.188;8.602;2022-09-25T03:17:36;11.61;92.47
66740;DHT22;53653;52.188;8.602;2022-09-25T03:20:04;11.59;92.33
66740;DHT22;53653;52.188;8.602;2022-09-25T03:22:30;11.59;92.28
66740;DHT22;53653;52.188;8.602;2022-09-25T03:24:56;11.59;92.10
66740;DHT22;53653;52.188;8.602;2022-09-25T03:27:21;11.62;91.96
66740;DHT22;53653;52.188;8.602;2022-09-25T03:29:48;11.62;91.87
66740;DHT22;53653;52.188;8.602;2022-09-25T03:32:14;11.65;91.78
66740;DHT22;53653;52.188;8.602;2022-09-25T03:34:39;11.62;91.63
66740;DHT22;53653;52.188;8.602;2022-09-25T03:37:05;11.61;91.63
66740;DHT22;53653;52.188;8.602;2022-09-25T03:39:30;11.61;91.66
66740;DHT22;53653;52.188;8.602;2022-09-25T03:41:56;11.61;91.57
66740;DHT22;53653;52.188;8.602;2022-09-25T03:44:21;11.61;91.41
66740;DHT22;53653;52.188;8.602;2022-09-25T03:46:46;11.56;91.45
66740;DHT22;53653;52.188;8.602;2022-09-25T03:49:12;11.53;91.60
66740;DHT22;53653;52.188;8.602;2022-09-25T03:51:38;11.46;91.67
66740;DHT22;53653;52.188;8.602;2022-09-25T03:54:03;11.45;91.75
66740;DHT22;53653;52.188;8.602;2022-09-25T03:56:29;11.40;91.71
66740;DHT22;53653;52.188;8.602;2022-09-25T03:58:55;11.36;91.74
66740;DHT22;53653;52.188;8.602;2022-09-25T04:01:22;11.32;91.74
66740;DHT22;53653;52.188;8.602;2022-09-25T04:03:48;11.32;91.64
66740;DHT22;53653;52.188;8.602;2022-09-25T04:06:17;11.22;91.77
66740;DHT22;53653;52.188;8.602;2022-09-25T04:08:43;11.21;91.96
66740;DHT22;53653;52.188;8.602;2022-09-25T04:11:09;11.22;91.71
66740;DHT22;53653;52.188;8.602;2022-09-25T04:13:35;11.17;91.54
66740;DHT22;53653;52.188;8.602;2022-09-25T04:16:03;11.08;91.72
66740;DHT22;53653;52.188;8.602;2022-09-25T04:18:29;11.07;91.87
66740;DHT22;53653;52.188;8.602;2022-09-25T04:20:56;11.00;92.05
66740;DHT22;53653;52.188;8.602;2022-09-25T04:23:22;10.96;92.04
66740;DHT22;53653;52.188;8.602;2022-09-25T04:25:48;10.90;91.97
66740;DHT22;53653;52.188;8.602;2022-09-25T04:28:13;10.84;92.22
66740;DHT22;53653;52.188;8.602;2022-09-25T04:30:39;10.77;92.33
66740;DHT22;53653;52.188;8.602;2022-09-25T04:33:04;10.74;92.56
66740;DHT22;53653;52.188;8.602;2022-09-25T04:35:48;10.70;92.47
66740;DHT22;53653;52.188;8.602;2022-09-25T04:38:14;10.66;92.50
66740;DHT22;53653;52.188;8.602;2022-09-25T04:40:39;10.61;92.50
66740;DHT22;53653;52.188;8.602;2022-09-25T04:43:05;10.57;92.54
66740;DHT22;53653;52.188;8.602;2022-09-25T04:45:33;10.59;92.64
66740;DHT22;53653;52.188;8.602;2022-09-25T04:47:59;10.56;92.55
66740;DHT22;53653;52.188;8.602;2022-09-25T04:50:26;10.55;92.50
66740;DHT22;53653;52.188;8.602;2022-09-25T04:52:52;10.48;92.50
66740;DHT22;53653;52.188;8.602;2022-09-25T04:55:18;10.46;92.53
66740;DHT22;53653;52.188;8.602;2022-09-25T04:57:44;10.45;92.39
66740;DHT22;53653;52.188;8.602;2022-09-25T05:00:10;10.43;92.34
66740;DHT22;53653;52.188;8.602;2022-09-25T05:02:37;10.35;92.50
66740;DHT22;53653;52.188;8.602;2022-09-25T05:05:03;10.33;92.64
66740;DHT22;53653;52.188;8.602;2022-09-25T05:07:28;10.32;92.71
66740;DHT22;53653;52.188;8.602;2022-09-25T05:09:54;10.32;92.63
66740;DHT22;53653;52.188;8.602;2022-09-25T05:12:19;10.25;92.69
66740;DHT22;53653;52.188;8.602;2022-09-25T05:14:45;10.25;92.75
66740;DHT22;53653;52.188;8.602;2022-09-25T05:17:10;10.19;92.87
66740;DHT22;53653;52.188;8.602;2022-09-25T05:19:37;10.16;92.97
66740;DHT22;53653;52.188;8.602;2022-09-25T05:22:02;10.13;93.02
66740;DHT22;53653;52.188;8.602;2022-09-25T05:24:28;10.06;93.04
66740;DHT22;53653;52.188;8.602;2022-09-25T05:26:55;9.97;93.14
66740;DHT22;53653;52.188;8.602;2022-09-25T05:29:21;9.91;93.26
66740;DHT22;53653;52.188;8.602;2022-09-25T05:31:47;9.84;93.38
66740;DHT22;53653;52.188;8.602;2022-09-25T05:34:14;9.80;93.56
66740;DHT22;53653;52.188;8.602;2022-09-25T05:36:40;9.80;93.70
66740;DHT22;53653;52.188;8.602;2022-09-25T05:39:05;9.80;93.78
66740;DHT22;53653;52.188;8.602;2022-09-25T05:41:31;9.80;93.73
66740;DHT22;53653;52.188;8.602;2022-09-25T05:43:59;9.82;93.67
66740;DHT22;53653;52.188;8.602;2022-09-25T05:46:24;9.85;93.56
66740;DHT22;53653;52.188;8.602;2022-09-25T05:48:49;9.92;93.44
66740;DHT22;53653;52.188;8.602;2022-09-25T05:51:15;10.03;93.06
66740;DHT22;53653;52.188;8.602;2022-09-25T05:53:40;10.03;92.84
66740;DHT22;53653;52.188;8.602;2022-09-25T05:56:06;10.05;92.70
66740;DHT22;53653;52.188;8.602;2022-09-25T05:58:33;10.11;92.66
66740;DHT22;53653;52.188;8.602;2022-09-25T06:01:04;10.12;92.40
66740;DHT22;53653;52.188;8.602;2022-09-25T06:03:29;10.11;92.26
66740;DHT22;53653;52.188;8.602;2022-09-25T06:05:56;10.12;92.18
66740;DHT22;53653;52.188;8.602;2022-09-25T06:08:22;10.12;91.88
66740;DHT22;53653;52.188;8.602;2022-09-25T06:10:52;10.13;91.66
66740;DHT22;53653;52.188;8.602;2022-09-25T06:13:19;10.16;91.44
66740;DHT22;53653;52.188;8.602;2022-09-25T06:15:44;10.12;91.55
66740;DHT22;53653;52.188;8.602;2022-09-25T06:18:10;10.09;91.69
66740;DHT22;53653;52.188;8.602;2022-09-25T06:20:35;10.09;91.85
66740;DHT22;53653;52.188;8.602;2022-09-25T06:23:01;10.11;91.87
66740;DHT22;53653;52.188;8.602;2022-09-25T06:25:29;10.11;91.69
66740;DHT22;53653;52.188;8.602;2022-09-25T06:27:58;10.09;91.65
66740;DHT22;53653;52.188;8.602;2022-09-25T06:30:28;10.08;91.68
66740;DHT22;53653;52.188;8.602;2022-09-25T06:33:02;10.02;91.89
66740;DHT22;53653;52.188;8.602;2022-09-25T06:35:29;10.05;91.96
66740;DHT22;53653;52.188;8.602;2022-09-25T06:37:58;10.03;92.04
66740;DHT22;53653;52.188;8.602;2022-09-25T06:40:25;10.06;92.02
66740;DHT22;53653;52.188;8.602;2022-09-25T06:42:56;10.16;91.99
66740;DHT22;53653;52.188;8.602;2022-09-25T06:45:22;10.33;91.54
66740;DHT22;53653;52.188;8.602;2022-09-25T06:47:47;10.48;91.30
66740;DHT22;53653;52.188;8.602;2022-09-25T06:50:12;10.45;90.85
66740;DHT22;53653;52.188;8.602;2022-09-25T06:52:43;10.50;90.84
66740;DHT22;53653;52.188;8.602;2022-09-25T06:55:09;10.63;90.64
66740;DHT22;53653;52.188;8.602;2022-09-25T06:57:34;10.61;90.33
66740;DHT22;53653;52.188;8.602;2022-09-25T07:00:05;10.64;90.19
66740;DHT22;53653;52.188;8.602;2022-09-25T07:02:31;10.84;89.76
66740;DHT22;53653;52.188;8.602;2022-09-25T07:05:14;11.42;88.65
66740;DHT22;53653;52.188;8.602;2022-09-25T07:07:40;11.52;87.35
66740;DHT22;53653;52.188;8.602;2022-09-25T07:10:06;11.43;87.20
66740;DHT22;53653;52.188;8.602;2022-09-25T07:12:31;11.36;87.49
66740;DHT22;53653;52.188;8.602;2022-09-25T07:14:58;11.66;87.35
66740;DHT22;53653;52.188;8.602;2022-09-25T07:17:23;11.72;86.60
66740;DHT22;53653;52.188;8.602;2022-09-25T07:19:49;12.25;85.51
66740;DHT22;53653;52.188;8.602;2022-09-25T07:22:14;12.37;84.25
66740;DHT22;53653;52.188;8.602;2022-09-25T07:24:40;12.89;82.12
66740;DHT22;53653;52.188;8.602;2022-09-25T07:27:05;13.24;81.45
66740;DHT22;53653;52.188;8.602;2022-09-25T07:29:30;13.67;79.92
66740;DHT22;53653;52.188;8.602;2022-09-25T07:31:56;13.81;78.64
66740;DHT22;53653;52.188;8.602;2022-09-25T07:34:21;14.06;78.82
66740;DHT22;53653;52.188;8.602;2022-09-25T07:36:47;14.36;77.42
66740;DHT22;53653;52.188;8.602;2022-09-25T07:39:12;14.38;76.69
66740;DHT22;53653;52.188;8.602;2022-09-25T07:41:37;14.40;76.49
66740;DHT22;53653;52.188;8.602;2022-09-25T07:44:03;14.65;76.65
66740;DHT22;53653;52.188;8.602;2022-09-25T07:46:28;14.75;76.24
66740;DHT22;53653;52.188;8.602;2022-09-25T07:48:55;14.48;76.77
66740;DHT22;53653;52.188;8.602;2022-09-25T07:51:21;14.38;76.74
66740;DHT22;53653;52.188;8.602;2022-09-25T07:53:46;14.48;77.10
66740;DHT22;53653;52.188;8.602;2022-09-25T07:56:12;14.74;76.84
66740;DHT22;53653;52.188;8.602;2022-09-25T07:58:38;15.04;76.24
66740;DHT22;53653;52.188;8.602;2022-09-25T08:01:06;15.31;75.04
66740;DHT22;53653;52.188;8.602;2022-09-25T08:03:32;15.28;73.78
66740;DHT22;53653;52.188;8.602;2022-09-25T08:06:08;15.87;73.44
66740;DHT22;53653;52.188;8.602;2022-09-25T08:08:35;16.26;72.27
66740;DHT22;53653;52.188;8.602;2022-09-25T08:11:03;15.74;73.22
66740;DHT22;53653;52.188;8.602;2022-09-25T08:13:31;16.02;72.39
66740;DHT22;53653;52.188;8.602;2022-09-25T08:15:56;15.77;73.37
66740;DHT22;53653;52.188;8.602;2022-09-25T08:18:22;15.60;73.70
66740;DHT22;53653;52.188;8.602;2022-09-25T08:20:47;15.19;74.53
66740;DHT22;53653;52.188;8.602;2022-09-25T08:23:13;15.05;75.36
66740;DHT22;53653;52.188;8.602;2022-09-25T08:25:38;15.91;73.91
66740;DHT22;53653;52.188;8.602;2022-09-25T08:28:03;15.74;73.35
66740;DHT22;53653;52.188;8.602;2022-09-25T08:30:29;15.57;74.17
66740;DHT22;53653;52.188;8.602;2022-09-25T08:32:54;15.56;74.06
66740;DHT22;53653;52.188;8.602;2022-09-25T08:35:20;16.26;72.47
66740;DHT22;53653;52.188;8.602;2022-09-25T08:37:46;16.11;72.08
66740;DHT22;53653;52.188;8.602;2022-09-25T08:40:21;16.62;71.24
66740;DHT22;53653;52.188;8.602;2022-09-25T08:42:51;17.23;70.01
66740;DHT22;53653;52.188;8.602;2022-09-25T08:45:27;17.55;67.72
66740;DHT22;53653;52.188;8.602;2022-09-25T08:48:25;17.79;67.21
66740;DHT22;53653;52.188;8.602;2022-09-25T08:51:11;17.86;66.51
66740;DHT22;53653;52.188;8.602;2022-09-25T08:53:37;18.23;65.31
66740;DHT22;53653;52.188;8.602;2022-09-25T08:56:05;18.44;63.53
66740;DHT22;53653;52.188;8.602;2022-09-25T08:58:45;18.61;63.90
66740;DHT22;53653;52.188;8.602;2022-09-25T09:01:15;18.99;62.80
66740;DHT22;53653;52.188;8.602;2022-09-25T09:04:01;19.08;61.65
66740;DHT22;53653;52.188;8.602;2022-09-25T09:06:30;19.27;61.82
66740;DHT22;53653;52.188;8.602;2022-09-25T09:09:23;19.18;62.57
66740;DHT22;53653;52.188;8.602;2022-09-25T09:12:02;19.39;61.16
66740;DHT22;53653;52.188;8.602;2022-09-25T09:14:32;19.06;60.14
66740;DHT22;53653;52.188;8.602;2022-09-25T09:17:24;18.76;61.79
66740;DHT22;53653;52.188;8.602;2022-09-25T09:19:57;18.88;63.01
66740;DHT22;53653;52.188;8.602;2022-09-25T09:22:29;18.87;61.08
66740;DHT22;53653;52.188;8.602;2022-09-25T09:25:15;18.65;62.27
66740;DHT22;53653;52.188;8.602;2022-09-25T09:35:31;19.84;57.38
66740;DHT22;53653;52.188;8.602;2022-09-25T09:43:52;19.06;59.09
66740;DHT22;53653;52.188;8.602;2022-09-25T09:46:27;18.38;59.36
66740;DHT22;53653;52.188;8.602;2022-09-25T09:52:14;16.89;63.20
66740;DHT22;53653;52.188;8.602;2022-09-25T09:57:40;18.45;60.94
66740;DHT22;53653;52.188;8.602;2022-09-25T10:00:19;17.93;62.12
66740;DHT22;53653;52.188;8.602;2022-09-25T10:02:57;17.65;62.21
66740;DHT22;53653;52.188;8.602;2022-09-25T10:05:31;18.61;59.47
66740;DHT22;53653;52.188;8.602;2022-09-25T10:07:57;20.46;55.08
66740;DHT22;53653;52.188;8.602;2022-09-25T10:10:34;21.00;53.62
66740;DHT22;53653;52.188;8.602;2022-09-25T10:13:03;18.76;58.03
66740;DHT22;53653;52.188;8.602;2022-09-25T10:15:38;17.95;61.74
66740;DHT22;53653;52.188;8.602;2022-09-25T10:18:05;17.64;60.93
66740;DHT22;53653;52.188;8.602;2022-09-25T10:25:58;20.42;56.18
66740;DHT22;53653;52.188;8.602;2022-09-25T10:28:33;21.69;51.70
66740;DHT22;53653;52.188;8.602;2022-09-25T10:31:01;21.59;50.38
66740;DHT22;53653;52.188;8.602;2022-09-25T10:33:30;21.52;50.82
66740;DHT22;53653;52.188;8.602;2022-09-25T10:35:56;20.67;52.45
66740;DHT22;53653;52.188;8.602;2022-09-25T10:43:58;18.36;60.59
66740;DHT22;53653;52.188;8.602;2022-09-25T10:46:30;18.03;60.32
66740;DHT22;53653;52.188;8.602;2022-09-25T10:49:26;17.38;61.87
66740;DHT22;53653;52.188;8.602;2022-09-25T10:52:15;17.07;63.34
66740;DHT22;53653;52.188;8.602;2022-09-25T10:54:41;16.66;65.00
66740;DHT22;53653;52.188;8.602;2022-09-25T10:57:32;16.58;65.56
66740;DHT22;53653;52.188;8.602;2022-09-25T11:00:14;16.42;66.21
66740;DHT22;53653;52.188;8.602;2022-09-25T11:02:44;16.28;67.45
66740;DHT22;53653;52.188;8.602;2022-09-25T11:05:20;16.58;66.05
66740;DHT22;53653;52.188;8.602;2022-09-25T11:07:52;16.83;66.27
66740;DHT22;53653;52.188;8.602;2022-09-25T11:10:21;17.83;63.16
66740;DHT22;53653;52.188;8.602;2022-09-25T11:12:47;18.38;61.64
66740;DHT22;53653;52.188;8.602;2022-09-25T11:15:17;18.88;59.24
66740;DHT22;53653;52.188;8.602;2022-09-25T11:17:50;18.16;61.19
66740;DHT22;53653;52.188;8.602;2022-09-25T11:25:21;17.96;58.05
66740;DHT22;53653;52.188;8.602;2022-09-25T11:27:57;17.62;60.60
66740;DHT22;53653;52.188;8.602;2022-09-25T11:30:28;17.55;61.83
66740;DHT22;53653;52.188;8.602;2022-09-25T11:33:47;17.38;61.71
66740;DHT22;53653;52.188;8.602;2022-09-25T11:35:49;17.28;62.39
66740;DHT22;53653;52.188;8.602;2022-09-25T11:41:30;17.11;63.57
66740;DHT22;53653;52.188;8.602;2022-09-25T11:44:08;17.16;62.58
66740;DHT22;53653;52.188;8.602;2022-09-25T11:46:45;17.13;62.78
66740;DHT22;53653;52.188;8.602;2022-09-25T11:49:31;17.11;63.01
66740;DHT22;53653;52.188;8.602;2022-09-25T12:00:48;16.97;62.68
66740;DHT22;53653;52.188;8.602;2022-09-25T12:16:44;18.09;59.61
66740;DHT22;53653;52.188;8.602;2022-09-25T12:19:34;17.81;60.17
66740;DHT22;53653;52.188;8.602;2022-09-25T12:22:24;17.54;60.11
66740;DHT22;53653;52.188;8.602;2022-09-25T12:30:19;17.26;61.32
66740;DHT22;53653;52.188;8.602;2022-09-25T12:41:23;17.89;58.88
66740;DHT22;53653;52.188;8.602;2022-09-25T12:43:41;18.65;56.25
66740;DHT22;53653;52.188;8.602;2022-09-25T12:49:20;18.13;58.21
66740;DHT22;53653;52.188;8.602;2022-09-25T12:51:51;17.81;58.74
66740;DHT22;53653;52.188;8.602;2022-09-25T12:54:35;17.58;58.51
66740;DHT22;53653;52.188;8.602;2022-09-25T12:57:11;17.26;59.51
66740;DHT22;53653;52.188;8.602;2022-09-25T13:05:20;16.81;60.84
66740;DHT22;53653;52.188;8.602;2022-09-25T13:07:58;16.86;60.30
66740;DHT22;53653;52.188;8.602;2022-09-25T13:13:01;16.91;60.49
66740;DHT22;53653;52.188;8.602;2022-09-25T13:15:34;16.94;61.02
66740;DHT22;53653;52.188;8.602;2022-09-25T13:18:03;16.87;60.14
66740;DHT22;53653;52.188;8.602;2022-09-25T13:22:58;16.73;61.00
66740;DHT22;53653;52.188;8.602;2022-09-25T13:25:27;16.69;61.24
66740;DHT22;53653;52.188;8.602;2022-09-25T13:27:53;16.77;61.31
66740;DHT22;53653;52.188;8.602;2022-09-25T13:30:26;16.83;61.24
66740;DHT22;53653;52.188;8.602;2022-09-25T13:32:57;16.79;62.41
66740;DHT22;53653;52.188;8.602;2022-09-25T13:35:24;16.91;61.85
66740;DHT22;53653;52.188;8.602;2022-09-25T13:40:32;16.94;62.33
66740;DHT22;53653;52.188;8.602;2022-09-25T13:43:33;17.00;62.27
66740;DHT22;53653;52.188;8.602;2022-09-25T13:48:42;16.97;61.95
66740;DHT22;53653;52.188;8.602;2022-09-25T14:01:35;17.66;59.75
66740;DHT22;53653;52.188;8.602;2022-09-25T14:06:35;17.72;58.09
66740;DHT22;53653;52.188;8.602;2022-09-25T14:09:15;17.39;59.28
66740;DHT22;53653;52.188;8.602;2022-09-25T14:11:43;17.04;59.55
66740;DHT22;53653;52.188;8.602;2022-09-25T14:17:03;16.81;59.96
66740;DHT22;53653;52.188;8.602;2022-09-25T14:19:33;16.81;60.36
66740;DHT22;53653;52.188;8.602;2022-09-25T14:22:02;16.77;59.29
66740;DHT22;53653;52.188;8.602;2022-09-25T14:24:29;16.75;59.28
66740;DHT22;53653;52.188;8.602;2022-09-25T14:26:57;17.00;59.14
66740;DHT22;53653;52.188;8.602;2022-09-25T14:29:25;16.84;58.48
66740;DHT22;53653;52.188;8.602;2022-09-25T14:47:46;16.38;60.01
66740;DHT22;53653;52.188;8.602;2022-09-25T14:50:23;16.28;59.53
66740;DHT22;53653;52.188;8.602;2022-09-25T14:52:54;16.31;60.08
66740;DHT22;53653;52.188;8.602;2022-09-25T14:55:21;16.36;60.34
66740;DHT22;53653;52.188;8.602;2022-09-25T14:57:49;16.38;59.87
66740;DHT22;53653;52.188;8.602;2022-09-25T15:00:17;16.48;59.97
66740;DHT22;53653;52.188;8.602;2022-09-25T15:02:48;16.38;59.50
66740;DHT22;53653;52.188;8.602;2022-09-25T15:07:50;16.53;59.67
66740;DHT22;53653;52.188;8.602;2022-09-25T15:10:26;16.53;59.53
66740;DHT22;53653;52.188;8.602;2022-09-25T15:12:53;16.47;59.61
66740;DHT22;53653;52.188;8.602;2022-09-25T15:15:19;16.47;59.64
66740;DHT22;53653;52.188;8.602;2022-09-25T15:17:53;16.47;60.37
66740;DHT22;53653;52.188;8.602;2022-09-25T15:20:24;16.66;59.91
66740;DHT22;53653;52.188;8.602;2022-09-25T15:22:57;16.87;59.21
66740;DHT22;53653;52.188;8.602;2022-09-25T15:25:27;17.18;59.17
66740;DHT22;53653;52.188;8.602;2022-09-25T15:27:53;17.35;57.44
66740;DHT22;53653;52.188;8.602;2022-09-25T15:30:19;17.00;58.27
66740;DHT22;53653;52.188;8.602;2022-09-25T15:32:51;17.04;58.65
66740;DHT22;53653;52.188;8.602;2022-09-25T15:35:28;17.17;57.83
66740;DHT22;53653;52.188;8.602;2022-09-25T15:38:06;17.32;56.79
66740;DHT22;53653;52.188;8.602;2022-09-25T15:40:34;17.31;55.76
66740;DHT22;53653;52.188;8.602;2022-09-25T15:43:00;17.32;55.65
66740;DHT22;53653;52.188;8.602;2022-09-25T15:46:23;17.54;55.73
66740;DHT22;53653;52.188;8.602;2022-09-25T15:48:30;17.79;53.48
66740;DHT22;53653;52.188;8.602;2022-09-25T15:51:02;17.69;53.52
66740;DHT22;53653;52.188;8.602;2022-09-25T15:53:34;17.68;52.40
66740;DHT22;53653;52.188;8.602;2022-09-25T15:56:26;17.58;53.15
66740;DHT22;53653;52.188;8.602;2022-09-25T15:59:00;17.58;52.38
66740;DHT22;53653;52.188;8.602;2022-09-25T16:01:28;17.44;53.40
66740;DHT22;53653;52.188;8.602;2022-09-25T16:04:17;17.42;53.07
66740;DHT22;53653;52.188;8.602;2022-09-25T16:07:31;17.45;53.51
66740;DHT22;53653;52.188;8.602;2022-09-25T16:10:02;17.34;52.22
66740;DHT22;53653;52.188;8.602;2022-09-25T16:12:34;17.23;52.52
66740;DHT22;53653;52.188;8.602;2022-09-25T16:17:53;18.06;49.88
66740;DHT22;53653;52.188;8.602;2022-09-25T16:20:34;19.05;47.26
66740;DHT22;53653;52.188;8.602;2022-09-25T16:23:03;18.02;49.42
66740;DHT22;53653;52.188;8.602;2022-09-25T16:25:42;17.45;51.25
66740;DHT22;53653;52.188;8.602;2022-09-25T16:28:18;17.04;52.53
66740;DHT22;53653;52.188;8.602;2022-09-25T16:30:49;16.76;53.31
66740;DHT22;53653;52.188;8.602;2022-09-25T16:33:24;16.62;53.96
66740;DHT22;53653;52.188;8.602;2022-09-25T16:35:50;16.51;54.84
66740;DHT22;53653;52.188;8.602;2022-09-25T16:38:33;16.39;55.95
66740;DHT22;53653;52.188;8.602;2022-09-25T16:41:20;16.29;56.49
66740;DHT22;53653;52.188;8.602;2022-09-25T16:44:09;16.12;57.52
66740;DHT22;53653;52.188;8.602;2022-09-25T16:46:38;16.00;58.41
66740;DHT22;53653;52.188;8.602;2022-09-25T16:49:05;15.87;59.27
66740;DHT22;53653;52.188;8.602;2022-09-25T16:51:31;15.83;59.64
66740;DHT22;53653;52.188;8.602;2022-09-25T16:53:58;15.77;60.44
66740;DHT22;53653;52.188;8.602;2022-09-25T16:56:31;15.66;61.34
66740;DHT22;53653;52.188;8.602;2022-09-25T16:58:57;15.66;60.93
66740;DHT22;53653;52.188;8.602;2022-09-25T17:01:24;15.62;61.20
66740;DHT22;53653;52.188;8.602;2022-09-25T17:03:49;15.54;61.82
66740;DHT22;53653;52.188;8.602;2022-09-25T17:06:22;15.46;61.96
66740;DHT22;53653;52.188;8.602;2022-09-25T17:08:48;15.43;61.36
66740;DHT22;53653;52.188;8.602;2022-09-25T17:11:19;15.40;60.92
66740;DHT22;53653;52.188;8.602;2022-09-25T17:13:46;15.31;61.26
66740;DHT22;53653;52.188;8.602;2022-09-25T17:16:12;15.23;61.20
66740;DHT22;53653;52.188;8.602;2022-09-25T17:18:38;15.15;61.24
66740;DHT22;53653;52.188;8.602;2022-09-25T17:21:09;15.08;61.48
66740;DHT22;53653;52.188;8.602;2022-09-25T17:23:35;14.96;61.77
66740;DHT22;53653;52.188;8.602;2022-09-25T17:26:02;14.89;62.07
66740;DHT22;53653;52.188;8.602;2022-09-25T17:28:29;14.75;62.46
66740;DHT22;53653;52.188;8.602;2022-09-25T17:30:57;14.73;62.51
66740;DHT22;53653;52.188;8.602;2022-09-25T17:33:24;14.73;62.57
66740;DHT22;53653;52.188;8.602;2022-09-25T17:35:55;14.80;62.15
66740;DHT22;53653;52.188;8.602;2022-09-25T17:38:23;14.73;62.45
66740;DHT22;53653;52.188;8.602;2022-09-25T17:40:50;14.61;62.96
66740;DHT22;53653;52.188;8.602;2022-09-25T17:43:17;14.48;63.58
66740;DHT22;53653;52.188;8.602;2022-09-25T17:45:48;14.46;63.66
66740;DHT22;53653;52.188;8.602;2022-09-25T17:48:18;14.43;63.88
66740;DHT22;53653;52.188;8.602;2022-09-25T17:50:51;14.38;64.00
66740;DHT22;53653;52.188;8.602;2022-09-25T17:53:24;14.29;64.73
66740;DHT22;53653;52.188;8.602;2022-09-25T17:55:52;14.25;64.85
66740;DHT22;53653;52.188;8.602;2022-09-25T17:58:17;14.23;65.09
66740;DHT22;53653;52.188;8.602;2022-09-25T18:00:43;14.15;65.76
66740;DHT22;53653;52.188;8.602;2022-09-25T18:03:12;14.06;65.92
66740;DHT22;53653;52.188;8.602;2022-09-25T18:05:39;14.01;66.09
66740;DHT22;53653;52.188;8.602;2022-09-25T18:08:04;13.94;66.21
66740;DHT22;53653;52.188;8.602;2022-09-25T18:10:30;13.89;66.61
66740;DHT22;53653;52.188;8.602;2022-09-25T18:12:57;13.82;66.76
66740;DHT22;53653;52.188;8.602;2022-09-25T18:15:26;13.71;67.10
66740;DHT22;53653;52.188;8.602;2022-09-25T18:17:52;13.64;67.27
66740;DHT22;53653;52.188;8.602;2022-09-25T18:20:18;13.61;67.30